Overall Results: 5K

Sort by  Gun Time Net Time
Place Bib First Last Sex Age Div City State Gun
Time
Net
Time
Pace Sex
Place
Sex
Total
Div
Place
Div
Total
1 153 Samuel Pino M 41 M4044 Salem OR 20:51.9 20:49.0 6:42 1 69 1 6
2 186 John Shirley M 55 M5559 Salem OR 21:08.8 21:05.8 6:48 2 69 1 6
3 53 James Dilger M 40 M4044 Salem OR 21:33.5 21:32.0 6:56 3 69 2 6
4 175 Arturo Salinas M 25 M2529 Salem OR 22:58.5 22:43.8 7:19 4 69 1 7
5 129 Maddie McClure F 21 F2024 Salem OR 23:03.9 23:01.9 7:25 1 156 1 2
6 224 Camden White M 16 M1519 Salem OR 23:02.0 23:02.0 7:25 5 69 1 3
7 116 Hannah Lea F 21 F2024 Salem OR 23:04.2 23:02.8 7:26 2 156 2 2
8 35 Lucy Cort F 19 F1519 Richland WA 23:09.0 23:07.6 7:27 3 156 1 5
9 251 Will Cordero F 17 F1519 Salem OR 23:30.0 23:30.0 7:34 4 156 2 5
10 46 Sarah Dean F 19 F1519 Salem OR 23:54.7 23:52.8 7:42 5 156 3 5
11 111 Miya Konishi F 19 F1519 Salem OR 24:41.4 24:39.6 7:57 6 156 4 5
12 238 Logan Cole M 15 M1519 Salem OR 25:30.1 24:53.9 8:01 6 69 2 3
13 97 Ella Johnson F 12 F1114 Salem OR 26:16.0 26:12.5 8:27 7 156 1 6
14 99 Lori Kaliher F 44 F4044 Salem OR 26:25.2 26:14.8 8:27 8 156 1 17
15 181 Alexis Schwartz F 19 F1519 Salem OR 26:35.7 26:34.3 8:34 9 156 5 5
16 132 Cristian Mendez M 31 M3034 Salem OR 26:42.2 26:38.9 8:35 7 69 1 13
17 206 Drew Taylor M 32 M3034 Salem OR 27:38.5 26:55.6 8:40 8 69 2 13
18 190 Kristina Smith F 26 F2529 Salem OR 27:36.3 27:28.8 8:51 10 156 1 14
19 62 Gabriela Felling F 49 F4549 Salem OR 28:09.3 27:59.5 9:01 11 156 1 12
20 232 Ted Woodruff M 54 M5054 Gervais OR 28:14.6 28:02.0 9:02 9 69 1 6
21 233 Tom Yang M 31 M3034 Salem OR 28:32.9 28:29.2 9:11 10 69 3 13
22 161 Susan Redmond F 55 F5559 Salem OR 28:44.3 28:33.0 9:12 12 156 1 15
23 51 Amber Dickinson F 38 F3539 Salem OR 29:21.3 29:18.9 9:27 13 156 1 15
24 250 Billy Cordero M 43 M4044 Salem OR 29:27.3 29:27.3 9:29 11 69 3 6
25 168 Jason Robinson M 46 M4549 Salem OR 30:04.7 29:29.7 9:30 12 69 1 9
26 33 Jonathan Cole M 45 M4549 Salem OR 30:05.5 29:29.8 9:30 13 69 2 9
27 26 Jason Carlisle M 31 M3034 Salem OR 30:28.2 30:13.3 9:44 14 69 4 13
28 225 Nina White F 43 F4044 Salem OR 30:26.6 30:26.6 9:48 14 156 2 17
29 242 Emily Collins F 38 F3539 Salem OR 30:42.2 30:28.6 9:49 15 156 2 15
30 152 Selma Pierce F 64 F6064 Salem OR 31:12.1 30:56.1 9:58 16 156 1 10
31 151 Bud Pierce M 62 M6064 Salem OR 31:12.1 30:56.2 9:58 15 69 1 4
32 34 Ryan Collier M 47 M4549 Salem OR 31:11.7 31:07.9 10:02 16 69 3 9
33 169 Johnathan Rodriguez M 29 M2529 Salem OR 31:52.5 31:48.9 10:15 17 69 2 7
34 227 Stephanie Wile F 37 F3539 Salem OR 32:30.6 32:19.5 10:25 17 156 3 15
35 115 Tiffany Lawrence F 37 F3539 Salem OR 32:30.7 32:19.7 10:25 18 156 4 15
36 236 Megan Devlin F 32 F3034 Oregon City OR 34:01.9 33:27.0 10:46 19 156 1 40
37 156 Terrence Pratt M 71 M7074 Salem OR 33:55.1 33:46.7 10:53 18 69 1 1
38 192 Eric Solberg M 37 M3539 Salem OR 34:31.5 34:13.9 11:02 19 69 1 4
39 193 Jennifer Solberg F 41 F4044 Salem OR 34:31.5 34:14.6 11:02 20 156 3 17
40 171 Tom Romanowski M 30 M3034 Salem OR 34:22.2 34:17.1 11:03 20 69 5 13
41 6 Lorenzo Arteaga M 27 M2529 Hillsboro OR 34:23.0 34:23.0 11:05 21 69 3 7
42 195 Eileen Spurgeon F 61 F6064 Salem OR 34:57.0 34:32.3 11:07 21 156 2 10
43 24 Kevin Cameron M 62 M6064 Salem OR 36:44.6 36:28.6 11:45 22 69 2 4
44 183 Emmitt Seymour M 2 M0110 Salem OR 37:15.0 37:15.0 12:00 23 69 1 2
45 4 Stephanie Anderson F 33 F3034 Salem OR 38:32.0 37:44.0 12:09 22 156 2 40
46 210 Ryanne Thomas F 32 F3034 Salem OR 38:31.7 37:44.4 12:09 23 156 3 40
47 248 Lincoln Cordero M 11 M1114 Salem OR 37:56.7 37:56.7 12:13 24 69 1 3
48 249 Emma Cordero F 14 F1114 Salem OR 38:11.0 38:11.0 12:18 24 156 2 6
49 244 Kristi Tihanyi F 28 F2529 Portland OR 38:18.5 38:14.6 12:19 25 156 2 14
50 20 Christina Broncheau F 65 F6569 Monmouth OR 38:50.1 38:42.4 12:28 26 156 1 5
51 2 Bruce Anderson M 55 M5559 Salem OR 39:36.3 38:50.3 12:31 25 69 2 6
52 131 Lorene McMurrin F 62 F6064 Salem OR 39:28.0 39:10.9 12:37 27 156 3 10
53 93 Mary James F 62 F6064 Salem OR 39:27.4 39:13.4 12:38 28 156 4 10
54 212 Aejaz Hussain M 46 M4549 Salem OR 39:35.3 39:19.7 12:40 26 69 4 9
55 144 Patty O'Neal F 58 F5559 Gervais OR 39:57.2 39:45.0 12:48 29 156 2 15
56 21 Michael Broncheau M 65 M6569 Monmouth OR 39:57.0 39:48.1 12:49 27 69 1 4
57 123 Teresa Lulay F 28 F2529 Salem OR 40:51.1 39:56.6 12:52 30 156 3 14
58 84 Bailey Helbling F 11 F1114 Salem OR 40:51.0 39:58.4 12:52 31 156 3 6
59 155 Natalie Potter F 30 F3034 Salem OR 40:03.6 39:59.3 12:53 32 156 4 40
60 76 Laura Granados F 27 F2529 Salem OR 40:48.3 40:11.8 12:57 33 156 4 14
61 136 Jessica Moch F 30 F3034 Salem OR 40:29.8 40:25.4 13:01 34 156 5 40
62 162 Stephanie Reeves F 46 F4549 Dallas OR 41:18.2 40:30.9 13:03 35 156 2 12
63 49 Tammy Dennee F 56 F5559 Dallas OR 41:19.2 40:33.2 13:04 36 156 3 15
64 146 Stephanie Palmblad F 31 F3034 Salem OR 41:09.0 40:58.2 13:12 37 156 6 40
65 240 Sophia Verdugo F 38 F3539 Independence OR 42:55.2 42:34.7 13:43 38 156 5 15
66 239 Jeff Dellacioppa M 45 M4549 Independence OR 42:57.0 42:36.5 13:43 28 69 5 9
67 157 Gini Price F 45 F4549 Salem OR 44:03.4 43:45.1 14:05 39 156 3 12
68 39 Justin Curtis M 33 M3034 Keizer OR 44:55.1 44:00.3 14:10 29 69 6 13
69 61 Sarah Feenan F 33 F3034 Salem OR 44:49.2 44:10.3 14:14 40 156 7 40
70 130 Riley McKay F 11 F1114 Salem OR 44:22.0 44:11.8 14:14 41 156 4 6
71 75 Christy Granados F 31 F3034 Salem OR 44:49.5 44:13.4 14:15 42 156 8 40
72 203 Tony Stovin M 36 M3539 Salem OR 44:26.6 44:16.2 14:15 30 69 2 4
73 200 Ashley Stovin F 36 F3539 Salem OR 44:28.2 44:18.4 14:16 43 156 6 15
74 211 Leah Thorp F 34 F3034 Salem OR 45:10.4 45:02.3 14:30 44 156 9 40
75 89 Susan Horning F 28 F2529 Salem OR 47:39.3 46:55.4 15:07 45 156 5 14
76 13 Kim Beck F 44 F4044 Salem OR 48:03.3 47:36.8 15:20 46 156 4 17
77 107 Brenda Kidder F 28 F2529 Salem OR 49:05.3 48:20.5 15:34 47 156 6 14
78 199 Jennifer Stephens F 42 F4044 Salem OR 49:05.5 48:20.7 15:34 48 156 5 17
79 213 Michelle Tlusty F 41 F4044 Salem OR 49:42.4 49:05.2 15:48 49 156 6 17
80 70 Austin Gibbons M 31 M3034 Salem OR 49:42.6 49:05.3 15:48 31 69 7 13
81 189 Sarah Skinner F 31 F3034 Salem OR 49:42.4 49:25.5 15:55 50 156 10 40
82 223 Brian White M 44 M4044 Salem OR 50:20.8 50:20.8 16:13 32 69 4 6
83 54 Victoria Dobrkovsky F 31 F3034 Lebanon OR 50:57.5 50:38.9 16:19 51 156 11 40
84 143 Wauneta Ohnmacht F 61 F6064 Salem OR 50:56.2 50:49.0 16:22 52 156 5 10
85 252 Maria Mendoza F 37 F3539 Independence OR 51:25.4 51:25.4 16:34 53 156 7 15
86 145 Verenice Pacheco F 31 F3034 Salem OR 51:26.5 51:26.5 16:34 54 156 12 40
87 229 Christine Wilson F 57 F5559 Albany OR 52:03.8 51:40.2 16:38 55 156 4 15
88 18 Kathryn Bornrinski F 31 F3034 Albany OR 52:05.7 51:42.4 16:39 56 156 13 40
89 120 Sarah Lowe F 30 F3034 Salem OR 51:52.2 51:45.3 16:40 57 156 14 40
90 90 Russ Hoskins M 55 M5559 Salem OR 52:30.0 52:05.5 16:46 33 69 3 6
91 176 Mary Schmidgall F 68 F6569 Salem OR 52:43.4 52:06.2 16:47 58 156 2 5
92 91 Stephanie Hoskins F 52 F5054 Salem OR 52:30.7 52:07.4 16:47 59 156 1 7
93 117 Katherine Keppel F 56 F5559 Salem OR 53:02.7 52:10.6 16:48 60 156 5 15
94 9 Brenna Baucum F 35 F3539 Salem OR 53:03.1 52:11.5 16:48 61 156 8 15
95 14 Holly Berry F 28 F2529 Salem OR 53:03.3 52:19.6 16:51 62 156 7 14
96 11 Paul Baumer M 65 M6569 Tualatin OR 53:00.8 52:29.3 16:54 34 69 2 4
97 10 Barbara Baumer F 65 F6569 Tualatin OR 53:01.3 52:30.8 16:55 63 156 3 5
98 122 Don Lulay M 58 M5559 Salem OR 54:07.3 53:14.3 17:09 35 69 4 6
99 207 Erika Templeton F 45 F4549 Salem OR 54:06.8 53:16.2 17:09 64 156 4 12
100 191 Ashley Smithson F 25 F2529 Salem OR 54:07.4 53:17.9 17:10 65 156 8 14
101 52 Greg Dilger M 68 M6569 Salem OR 54:21.8 53:25.2 17:12 36 69 3 4
102 231 Jane Wolley F 68 F6569 Congress AZ 54:29.0 53:36.7 17:16 66 156 4 5
103 31 Bess Cheney-Smith F 71 F7074 Congress AZ 54:28.2 53:36.7 17:16 67 156 1 3
104 17 Jerry Biggs M 43 M4044 Redmond OR 53:42.2 53:42.2 17:18 37 69 5 6
105 22 Jim Bunker M 61 M6064 Vancouver WA 54:36.6 53:42.4 17:18 38 69 3 4
106 71 Jodi Gill F 43 F4044 Salem OR 53:43.6 53:43.6 17:18 68 156 7 17
107 228 Jaymie Willis F 34 F3034 Vancouver WA 54:38.0 53:47.7 17:19 69 156 15 40
108 126 Jean Madison F 60 F6064 Vancouver WA 54:37.8 53:48.1 17:20 70 156 6 10
109 187 Dominic Shrull M 26 M2529 Vancouver WA 54:39.0 53:48.5 17:20 39 69 4 7
110 185 Evelyn Seymour F 5 F0110 Salem OR 54:10.4 54:00.4 17:23 71 156 1 5
111 247 Cathy Cordero F 42 F4044 Salem OR 54:00.6 54:00.6 17:24 72 156 8 17
112 92 Jerri Hunt F 49 F4549 Salem OR 54:36.8 54:01.6 17:24 73 156 5 12
113 184 Erin Seymour F 33 F3034 Salem OR 54:02.1 54:02.1 17:24 74 156 16 40
114 59 Tanaya Everbe F 36 F3539 Salem OR 54:41.4 54:06.7 17:26 75 156 9 15
115 112 Chris Kraemer M 53 M5054 Salem OR 55:08.6 54:26.5 17:32 40 69 2 6
116 158 Shannon Priem F 66 F6569 Salem OR 55:08.2 54:26.8 17:32 76 156 5 5
117 63 Michelle Fisher F 31 F3034 Salem OR 54:56.5 54:27.1 17:32 77 156 17 40
118 194 Linda Spansel F 57 F5559 Salem OR 55:08.4 54:29.1 17:33 78 156 6 15
119 205 Larissa Swearingen F 38 F3539 Wilsonville OR 55:27.3 54:49.1 17:39 79 156 10 15
120 78 Amanda Harp F 31 F3034 Eugene OR 55:27.6 54:50.6 17:40 80 156 18 40
121 118 Brena Lopez F 46 F4549 Salem OR 55:42.2 54:53.1 17:40 81 156 6 12
122 216 Sylvia Van Dyke F 39 F3539 Salem OR 55:42.2 54:53.3 17:41 82 156 11 15
123 219 Angelica Vega F 51 F5054 Keizer OR 55:42.8 54:53.6 17:41 83 156 2 7
124 201 Laura Stovin F 33 F3034 Salem OR 55:13.8 54:54.0 17:41 84 156 19 40
125 40 Amber Daniels F 41 F4044 Salem OR 55:43.0 54:54.8 17:41 85 156 9 17
126 217 Kelby Clarkson F 13 F1114 Salem OR 55:37.2 54:55.3 17:41 86 156 5 6
127 202 Lisa Stovin F 58 F5559 Salem OR 55:15.2 54:55.5 17:41 87 156 7 15
128 235 Cais Clarkson F 10 F0110 Salem OR 55:38.9 54:58.3 17:42 88 156 2 5
129 65 Robyn Fox F 45 F4549 Salem OR 55:47.1 55:06.2 17:45 89 156 7 12
130 66 Tim Fox M 45 M4549 Salem OR 55:50.1 55:06.5 17:45 41 69 6 9
131 32 Paige Clarkson F 44 F4044 Salem OR 55:49.3 55:08.7 17:45 90 156 10 17
132 218 Sheila Vandegraaf F 51 F5054 Salem OR 56:29.1 55:57.5 18:01 91 156 3 7
133 87 Whitney Higginbotham F 29 F2529 Salem OR 56:30.2 55:58.1 18:01 92 156 9 14
134 86 Nathan Higginbotham M 29 M2529 Salem OR 56:30.3 55:58.3 18:01 42 69 5 7
135 106 Mara Kelly F 44 F4044 Salem OR 56:54.9 56:29.0 18:11 93 156 11 17
136 29 Paige Cavett F 7 F0110 Vancouver WA 56:40.8 56:34.0 18:13 94 156 3 5
137 56 Judy Doyle F 71 F7074 Vancouver WA 56:41.7 56:35.0 18:13 95 156 2 3
138 198 Melissa Staten F 37 F3539 Salem OR 57:18.5 56:43.0 18:16 96 156 12 15
139 85 Mia Helbling F 3 F0110 Salem OR 57:39.6 56:44.6 18:16 97 156 4 5
140 197 Garrett Staten M 33 M3034 Salem OR 57:20.0 56:47.0 18:17 43 69 8 13
141 119 Elissa Lovell F 28 F2529 Salem OR 58:38.4 57:52.6 18:38 98 156 10 14
142 50 Melodie Dickey F 31 F3034 Salem OR 58:38.9 57:54.1 18:39 99 156 20 40
143 165 Katie Reynolds F 33 F3034 Salem OR 58:37.2 57:55.5 18:39 100 156 21 40
144 243 Cheyne Galusha M 36 M3539 Wilsonville OR 58:37.6 57:55.6 18:39 44 69 3 4
145 159 Amy Queen F 43 F4044 Salem OR 58:37.6 57:55.7 18:39 101 156 12 17
146 178 Neil Schmidt M 59 M5559 Dallas OR 58:42.5 58:12.7 18:45 45 69 5 6
147 41 Darand Davies M 52 M5054 Dallas OR 58:44.7 58:12.9 18:45 46 69 3 6
148 241 Hema Latha F 34 F3034 Eugene OR 58:53.3 58:40.6 18:54 102 156 22 40
149 44 Lisa Davis F 42 F4044 Keizer OR 59:28.3 58:48.0 18:56 103 156 13 17
150 58 Lisa Ennor F 38 F3539 Salem OR 59:27.4 58:49.0 18:56 104 156 13 15
151 154 Mary Polanski F 46 F4549 Salem OR 59:30.3 58:50.0 18:57 105 156 8 12
152 226 Deb Wilding F 63 F6064 Salem OR 59:19.0 58:56.8 18:59 106 156 7 10
153 245 Alan Wilding M 61 M6064 Salem OR 59:18.8 58:59.0 19:00 47 69 4 4
154 214 Kuca Torres F 64 F6064 Dayton OR 59:23.4 59:01.1 19:00 107 156 8 10
155 8 Debra Bates F 62 F6064 Salem OR 59:23.5 59:01.6 19:00 108 156 9 10
156 180 Spencer Schrock F 25 F2529 Dallas OR 59:44.3 59:14.0 19:04 109 156 11 14
157 45 Mikeal Davis M 52 M5054 Dallas OR 59:46.1 59:16.2 19:05 48 69 4 6
158 57 Mary Durrant F 52 F5054 Salem OR 59:43.2 59:22.9 19:07 110 156 4 7
159 138 Molly Morris F 33 F3034 Salem OR 59:44.1 59:24.7 19:08 111 156 23 40
160 222 Char Wertz F 52 F5054 Salem OR 59:43.4 59:25.6 19:08 112 156 5 7
161 88 Jane Hoag F 47 F4549 Keizer OR 1:00:07.0 59:26.8 19:09 113 156 9 12
162 174 Yvonne Ruiz Robles F 32 F3034 Salem OR 59:54.6 59:28.6 19:09 114 156 24 40
163 173 Edemir Ruiz Robles M 25 M2529 Salem OR 59:55.8 59:28.7 19:09 49 69 6 7
164 182 Kassandra Selby F 31 F3034 Salem OR 59:54.9 59:31.2 19:10 115 156 25 40
165 42 Debbie Davies F 52 F5054 Dallas OR 1:00:04.7 59:33.1 19:11 116 156 6 7
166 43 Donna Davis F 52 F5054 Dallas OR 1:00:05.6 59:34.7 19:11 117 156 7 7
167 177 Chris Schmidt F 55 F5559 Dallas OR 1:00:04.3 59:35.8 19:11 118 156 8 15
168 135 Lisa Miller F 27 F2529 Woodburn OR 59:37.1 59:37.1 19:12 119 156 12 14
169 79 Brenda Hart F 49 F4549 Hubbard OR 59:39.2 59:39.2 19:13 120 156 10 12
170 127 Brianna Maloney F 31 F3034 Salem OR 59:59.1 59:45.8 19:15 121 156 26 40
171 230 Lianna Wolf F 31 F3034 Salem OR 1:00:00.3 59:46.3 19:15 122 156 27 40
172 196 Cristal Stanley F 31 F3034 Salem OR 1:00:00.0 59:46.6 19:15 123 156 28 40
173 140 Joshua Murray M 26 M2529 Salem OR 59:53.9 59:49.1 19:16 50 69 7 7
174 141 Rachel Murray F 31 F3034 Salem OR 59:53.5 59:49.5 19:16 124 156 29 40
175 160 Teresa Rawlins F 40 F4044 Salem OR 1:00:40.7 1:00:28.5 19:28 125 156 14 17
176 3 Joy Anderson F 59 F5559 Salem OR 1:00:42.0 1:00:30.1 19:29 126 156 9 15
177 150 Katie Pfaff F 33 F3034 Independence OR 1:01:35.1 1:00:36.6 19:31 127 156 30 40
178 74 Patrick Graham M 38 M3539 Independence OR 1:01:36.2 1:00:38.1 19:31 51 69 4 4
179 12 Fawn Baylie F 31 F3034 Salem OR 1:01:56.4 1:01:34.6 19:50 128 156 31 40
180 15 Lex Besand F 31 F3034 Salem OR 1:01:57.9 1:01:35.6 19:50 129 156 32 40
181 77 Amy Gugliemno F 31 F3034 Salem OR 1:01:57.9 1:01:57.9 19:57 130 156 33 40
182 142 Holly Norris F 31 F3034 Salem OR 1:04:22.6 1:03:25.7 20:25 131 156 34 40
183 1 Ameila Ambriz F 44 F4044 Salem OR 1:04:08.2 1:03:45.5 20:32 132 156 15 17
184 82 Marianne Heinrichs F 44 F4044 Salem OR 1:04:19.2 1:03:45.9 20:32 133 156 16 17
185 83 Marilyn Heinrichs F 70 F7074 Salem OR 1:04:20.2 1:03:46.0 20:32 134 156 3 3
186 64 Michael Fox M 31 M3034 Salem OR 1:04:16.8 1:04:01.7 20:37 52 69 9 13
187 16 Melissa Besand F 31 F3034 Salem OR 1:04:20.5 1:04:02.8 20:37 135 156 35 40
188 246 Isaac Gabrial M 3 M0110 Dallas OR 1:06:34.6 1:05:59.5 21:15 53 69 2 2
189 164 Leaah Reyes F 11 F1114 Salem OR 1:06:31.0 1:06:01.1 21:15 136 156 6 6
190 163 Ellena Reyes F 35 F3539 Salem OR 1:06:39.0 1:06:03.2 21:16 137 156 14 15
191 69 German Gabriel M 32 M3034 Salem OR 1:06:32.0 1:06:04.0 21:16 54 69 10 13
192 221 Donalda Viens F 55 F5559 Salem OR 1:14:28.9 1:14:28.9 23:59 138 156 10 15
193 220 Arthur Viens M 66 M6569 Salem OR 1:14:32.0 1:14:32.0 24:00 55 69 4 4
194 81 Lori Haselton F 57 F5559 Salem OR 1:16:23.1 1:15:35.6 24:20 139 156 11 15
195 80 Kevin Haselton M 55 M5559 Salem OR 1:16:23.4 1:15:36.1 24:21 56 69 6 6

Men Results: 5K

Sort by  Gun Time Net Time
Place Bib First Last Sex Age Div City State Gun
Time
Net
Time
Pace Sex
Place
Sex
Total
Div
Place
Div
Total
1 153 Samuel Pino M 41 M4044 Salem OR 20:51.9 20:49.0 6:42 1 69 1 6
2 186 John Shirley M 55 M5559 Salem OR 21:08.8 21:05.8 6:48 2 69 1 6
3 53 James Dilger M 40 M4044 Salem OR 21:33.5 21:32.0 6:56 3 69 2 6
4 175 Arturo Salinas M 25 M2529 Salem OR 22:58.5 22:43.8 7:19 4 69 1 7
5 224 Camden White M 16 M1519 Salem OR 23:02.0 23:02.0 7:25 5 69 1 3
6 238 Logan Cole M 15 M1519 Salem OR 25:30.1 24:53.9 8:01 6 69 2 3
7 132 Cristian Mendez M 31 M3034 Salem OR 26:42.2 26:38.9 8:35 7 69 1 13
8 206 Drew Taylor M 32 M3034 Salem OR 27:38.5 26:55.6 8:40 8 69 2 13
9 232 Ted Woodruff M 54 M5054 Gervais OR 28:14.6 28:02.0 9:02 9 69 1 6
10 233 Tom Yang M 31 M3034 Salem OR 28:32.9 28:29.2 9:11 10 69 3 13
11 250 Billy Cordero M 43 M4044 Salem OR 29:27.3 29:27.3 9:29 11 69 3 6
12 168 Jason Robinson M 46 M4549 Salem OR 30:04.7 29:29.7 9:30 12 69 1 9
13 33 Jonathan Cole M 45 M4549 Salem OR 30:05.5 29:29.8 9:30 13 69 2 9
14 26 Jason Carlisle M 31 M3034 Salem OR 30:28.2 30:13.3 9:44 14 69 4 13
15 151 Bud Pierce M 62 M6064 Salem OR 31:12.1 30:56.2 9:58 15 69 1 4
16 34 Ryan Collier M 47 M4549 Salem OR 31:11.7 31:07.9 10:02 16 69 3 9
17 169 Johnathan Rodriguez M 29 M2529 Salem OR 31:52.5 31:48.9 10:15 17 69 2 7
18 156 Terrence Pratt M 71 M7074 Salem OR 33:55.1 33:46.7 10:53 18 69 1 1
19 192 Eric Solberg M 37 M3539 Salem OR 34:31.5 34:13.9 11:02 19 69 1 4
20 171 Tom Romanowski M 30 M3034 Salem OR 34:22.2 34:17.1 11:03 20 69 5 13
21 6 Lorenzo Arteaga M 27 M2529 Hillsboro OR 34:23.0 34:23.0 11:05 21 69 3 7
22 24 Kevin Cameron M 62 M6064 Salem OR 36:44.6 36:28.6 11:45 22 69 2 4
23 183 Emmitt Seymour M 2 M0110 Salem OR 37:15.0 37:15.0 12:00 23 69 1 2
24 248 Lincoln Cordero M 11 M1114 Salem OR 37:56.7 37:56.7 12:13 24 69 1 3
25 2 Bruce Anderson M 55 M5559 Salem OR 39:36.3 38:50.3 12:31 25 69 2 6
26 212 Aejaz Hussain M 46 M4549 Salem OR 39:35.3 39:19.7 12:40 26 69 4 9
27 21 Michael Broncheau M 65 M6569 Monmouth OR 39:57.0 39:48.1 12:49 27 69 1 4
28 239 Jeff Dellacioppa M 45 M4549 Independence OR 42:57.0 42:36.5 13:43 28 69 5 9
29 39 Justin Curtis M 33 M3034 Keizer OR 44:55.1 44:00.3 14:10 29 69 6 13
30 203 Tony Stovin M 36 M3539 Salem OR 44:26.6 44:16.2 14:15 30 69 2